createdAt,value
2022-07-25T00:00:45.668Z,147965.97
2022-07-25T00:03:14.092Z,147923.16
2022-07-25T00:05:45.665Z,147898.69
2022-07-25T00:08:12.722Z,147888.94
2022-07-25T00:10:39.756Z,147915.84
2022-07-25T00:13:06.878Z,147904.81
2022-07-25T00:15:34.055Z,147914.56
2022-07-25T00:18:02.201Z,147896.25
2022-07-25T00:20:30.938Z,147869.34
2022-07-25T00:23:08.299Z,147863.25
2022-07-25T00:25:35.424Z,147844.91
2022-07-25T00:28:02.501Z,147813.13
2022-07-25T00:30:29.587Z,147844.91
2022-07-25T00:32:56.677Z,147819.22
2022-07-25T00:35:23.802Z,147813.13
2022-07-25T00:37:50.845Z,147827.78
2022-07-25T00:40:17.909Z,147815.59
2022-07-25T00:42:44.946Z,147815.59
2022-07-25T00:45:11.985Z,147818.00
2022-07-25T00:47:39.068Z,147796.00
2022-07-25T00:50:06.603Z,147787.47
2022-07-25T00:52:35.273Z,147776.44
2022-07-25T00:55:02.451Z,147791.09
2022-07-25T00:57:29.502Z,147752.03
2022-07-25T00:59:56.548Z,147756.91
2022-07-25T01:02:23.651Z,147765.47
2022-07-25T01:04:51.243Z,147725.13
2022-07-25T01:07:18.406Z,147734.91
2022-07-25T01:09:45.825Z,147720.25
2022-07-25T01:12:12.860Z,147707.97
2022-07-25T01:14:39.965Z,147698.19
2022-07-25T01:17:07.011Z,147712.84
2022-07-25T01:19:34.077Z,147703.06
2022-07-25T01:22:01.159Z,147710.44
2022-07-25T01:24:29.158Z,147695.78
2022-07-25T01:26:56.225Z,147705.53
2022-07-25T01:29:23.275Z,147672.53
2022-07-25T01:31:50.317Z,147685.97
2022-07-25T01:34:17.391Z,147676.19
2022-07-25T01:36:44.477Z,147656.66
2022-07-25T01:39:11.608Z,147624.88
2022-07-25T01:41:38.691Z,147635.84
2022-07-25T01:44:06.069Z,147618.78
2022-07-25T01:46:33.440Z,147627.34
2022-07-25T01:49:00.639Z,147605.34
2022-07-25T01:51:27.731Z,147554.06
2022-07-25T01:53:54.752Z,147595.59
2022-07-25T01:56:22.519Z,147576.00
2022-07-25T01:58:49.683Z,147571.13
2022-07-25T02:01:16.781Z,147577.25
2022-07-25T02:03:46.396Z,147522.28
2022-07-25T02:06:13.436Z,147587.03
2022-07-25T02:08:40.485Z,147565.03
2022-07-25T02:11:07.527Z,147554.06
2022-07-25T02:13:34.605Z,147525.91
2022-07-25T02:16:01.638Z,147525.91
2022-07-25T02:18:29.456Z,147506.38
2022-07-25T02:20:56.483Z,147508.84
2022-07-25T02:23:23.571Z,147481.94
2022-07-25T02:25:50.587Z,147500.28
2022-07-25T02:28:18.115Z,147527.16
2022-07-25T02:30:45.299Z,147481.94
2022-07-25T02:33:12.366Z,147468.50
2022-07-25T02:35:39.403Z,147459.94
2022-07-25T02:38:07.138Z,147461.16
2022-07-25T02:40:34.230Z,147462.41
2022-07-25T02:43:01.353Z,147468.50
2022-07-25T02:45:28.427Z,147473.38
2022-07-25T02:47:55.445Z,147435.53
2022-07-25T02:50:23.779Z,147436.75
2022-07-25T02:52:50.816Z,147431.88
2022-07-25T02:55:17.887Z,147417.22
2022-07-25T02:57:44.905Z,147439.22
2022-07-25T03:00:12.855Z,147429.41
2022-07-25T03:02:40.169Z,147400.09
2022-07-25T03:05:14.495Z,147325.66
2022-07-25T03:07:43.369Z,147390.34
2022-07-25T03:10:12.196Z,147413.53
2022-07-25T03:12:40.693Z,147346.38
2022-07-25T03:15:09.080Z,147340.28
2022-07-25T03:17:36.525Z,147365.94
2022-07-25T03:20:08.298Z,147373.25
2022-07-25T03:22:35.849Z,147380.59
2022-07-25T03:25:03.849Z,147389.13
2022-07-25T03:27:31.274Z,147346.38
2022-07-25T03:29:58.400Z,147368.34
2022-07-25T03:32:26.553Z,147368.34
2022-07-25T03:34:53.670Z,147323.19
2022-07-25T03:37:21.780Z,147365.94
2022-07-25T03:39:49.101Z,147387.88
2022-07-25T03:42:16.230Z,147384.25
2022-07-25T03:44:43.291Z,147321.97
2022-07-25T03:47:10.310Z,147324.41
2022-07-25T03:49:47.830Z,147326.84
2022-07-25T03:52:14.861Z,147341.50
2022-07-25T03:54:41.895Z,147356.13
2022-07-25T03:57:08.937Z,147357.38
2022-07-25T03:59:35.971Z,147358.59
2022-07-25T04:02:03.016Z,147363.47
2022-07-25T04:04:30.421Z,147254.81
2022-07-25T04:06:57.495Z,147331.72
2022-07-25T04:09:24.573Z,147315.88
2022-07-25T04:11:51.618Z,147342.72
2022-07-25T04:14:18.748Z,147286.56
2022-07-25T04:16:45.841Z,147358.59
2022-07-25T04:19:13.021Z,147302.47
2022-07-25T04:21:40.219Z,147337.81
2022-07-25T04:24:07.811Z,147319.50
2022-07-25T04:26:35.077Z,147321.97
2022-07-25T04:29:03.647Z,147342.72
2022-07-25T04:31:30.978Z,147287.78
2022-07-25T04:33:58.107Z,147352.50
2022-07-25T04:36:26.530Z,147307.34
2022-07-25T04:38:53.665Z,147374.44
2022-07-25T04:41:20.740Z,147425.78
2022-07-25T04:43:48.868Z,147419.63
2022-07-25T04:46:20.690Z,147398.91
2022-07-25T04:48:48.902Z,147473.38
2022-07-25T04:51:17.048Z,147473.38
2022-07-25T04:53:44.502Z,147485.59
2022-07-25T04:56:11.623Z,147463.63
2022-07-25T04:58:38.947Z,147514.94
2022-07-25T05:01:06.284Z,147534.47
2022-07-25T05:03:33.385Z,147536.94
2022-07-25T05:06:00.463Z,147529.59
2022-07-25T05:08:27.571Z,147549.16
2022-07-25T05:10:54.632Z,147521.03
2022-07-25T05:13:21.649Z,147588.22
2022-07-25T05:15:48.724Z,147639.53
2022-07-25T05:18:15.782Z,147683.53
2022-07-25T05:20:42.809Z,147695.78
2022-07-25T05:23:09.864Z,147705.53
2022-07-25T05:25:36.882Z,147715.31
2022-07-25T05:28:04.145Z,147720.25
2022-07-25T05:30:32.695Z,147720.25
2022-07-25T05:33:01.391Z,147760.59
2022-07-25T05:35:28.585Z,147799.66
2022-07-25T05:37:55.768Z,147820.47
2022-07-25T05:40:23.042Z,147869.34
2022-07-25T05:42:50.090Z,147918.25
2022-07-25T05:45:17.151Z,147932.91
2022-07-25T05:47:44.216Z,147944.00
2022-07-25T05:50:11.373Z,147981.88
2022-07-25T05:52:38.501Z,147981.88
2022-07-25T05:55:06.113Z,148017.38
2022-07-25T05:57:35.283Z,148050.38
2022-07-25T06:00:05.135Z,148052.78
2022-07-25T06:02:32.451Z,148121.31
2022-07-25T06:04:59.714Z,148177.66
2022-07-25T06:07:26.778Z,148221.66
2022-07-25T06:09:53.918Z,148280.41
2022-07-25T06:12:20.967Z,148251.06
2022-07-25T06:14:51.625Z,148207.00
2022-07-25T06:17:18.694Z,148273.06
2022-07-25T06:19:45.721Z,148356.31
2022-07-25T06:22:13.735Z,148351.41
2022-07-25T06:24:42.208Z,148347.78
2022-07-25T06:27:09.258Z,148363.69
2022-07-25T06:29:37.866Z,148437.13
2022-07-25T06:32:05.289Z,148426.13
2022-07-25T06:34:32.313Z,148481.22
2022-07-25T06:36:59.489Z,148513.06
2022-07-25T06:39:28.014Z,148535.06
2022-07-25T06:41:55.125Z,148558.38
2022-07-25T06:44:22.190Z,148584.09
2022-07-25T06:46:49.581Z,148614.75
2022-07-25T06:49:18.324Z,148639.22
2022-07-25T06:51:45.388Z,148651.47
2022-07-25T06:54:14.220Z,148652.69
2022-07-25T06:56:41.297Z,148727.44
2022-07-25T06:59:08.545Z,148781.38
2022-07-25T07:01:35.771Z,148837.72
2022-07-25T07:04:04.190Z,148856.09
2022-07-25T07:06:31.614Z,148917.44
2022-07-25T07:08:58.628Z,148960.34
2022-07-25T07:11:25.776Z,148981.16
2022-07-25T07:13:52.885Z,149002.00
2022-07-25T07:16:20.191Z,148991.00
2022-07-25T07:18:49.439Z,149038.78
2022-07-25T07:21:21.308Z,149013.03
2022-07-25T07:23:49.331Z,149165.09
2022-07-25T07:26:21.381Z,149190.88
2022-07-25T07:28:48.542Z,149278.00
2022-07-25T07:31:18.348Z,149309.91
2022-07-25T07:33:45.745Z,149363.91
2022-07-25T07:36:12.920Z,149408.03
2022-07-25T07:38:40.026Z,149430.19
2022-07-25T07:41:07.754Z,149384.72
2022-07-25T07:43:35.791Z,149481.72
2022-07-25T07:46:03.146Z,149474.38
2022-07-25T07:48:31.379Z,149579.97
2022-07-25T07:51:00.154Z,149648.69
2022-07-25T07:53:48.010Z,149717.44
2022-07-25T07:56:16.137Z,149774.00
2022-07-25T07:58:43.357Z,149825.56
2022-07-25T08:01:10.901Z,149928.75
2022-07-25T08:03:37.935Z,149961.91
2022-07-25T08:06:05.510Z,150079.94
2022-07-25T08:08:32.578Z,150131.53
2022-07-25T08:10:59.997Z,150167.19
2022-07-25T08:13:30.437Z,150159.78
2022-07-25T08:15:59.306Z,150228.69
2022-07-25T08:18:29.847Z,150280.34
2022-07-25T08:20:57.261Z,150243.47
2022-07-25T08:23:25.655Z,150272.94
2022-07-25T08:25:52.724Z,150300.00
2022-07-25T08:28:20.640Z,150312.25
2022-07-25T08:30:47.832Z,150200.41
2022-07-25T08:33:17.964Z,150157.38
2022-07-25T08:35:54.485Z,150138.94
2022-07-25T08:38:22.902Z,150201.63
2022-07-25T08:40:50.639Z,150196.72
2022-07-25T08:43:19.200Z,150216.41
2022-07-25T08:45:48.746Z,150217.63
2022-07-25T08:48:20.961Z,150268.03
2022-07-25T08:50:48.984Z,150328.31
2022-07-25T08:53:35.243Z,150286.47
2022-07-25T08:56:13.307Z,150204.09
2022-07-25T08:58:44.143Z,150233.59
2022-07-25T09:01:12.911Z,150265.53
2022-07-25T09:03:41.383Z,150317.22
2022-07-25T09:06:19.476Z,150332.00
2022-07-25T09:08:55.290Z,150293.81
2022-07-25T09:11:37.529Z,150333.22
2022-07-25T09:14:11.524Z,150363.97
2022-07-25T09:16:44.924Z,150373.81
2022-07-25T09:19:21.089Z,150445.09
2022-07-25T09:22:03.574Z,150536.16
2022-07-25T09:24:32.593Z,150546.00
2022-07-25T09:27:02.256Z,150490.66
2022-07-25T09:29:34.338Z,150502.97
2022-07-25T09:32:13.214Z,150570.59
2022-07-25T09:34:42.205Z,150661.69
2022-07-25T09:37:12.341Z,150649.41
2022-07-25T09:39:46.033Z,150742.91
2022-07-25T09:42:17.962Z,150642.00
2022-07-25T09:44:56.913Z,150677.69
2022-07-25T09:47:24.310Z,150696.16
2022-07-25T09:49:52.211Z,150617.41
2022-07-25T09:52:19.400Z,150582.91
2022-07-25T09:54:46.517Z,150573.06
2022-07-25T09:57:13.638Z,150553.41
2022-07-25T09:59:40.806Z,150521.41
2022-07-25T10:02:32.459Z,150467.25
2022-07-25T10:05:14.596Z,150502.97
2022-07-25T10:07:50.603Z,150483.31
2022-07-25T10:10:32.467Z,150541.09
2022-07-25T10:13:10.184Z,150553.41
2022-07-25T10:15:42.240Z,150650.63
2022-07-25T10:18:10.063Z,150634.59
2022-07-25T10:20:37.380Z,150718.25
2022-07-25T10:23:05.272Z,150728.13
2022-07-25T10:25:33.241Z,150622.34
2022-07-25T10:28:08.218Z,150649.41
2022-07-25T10:30:39.871Z,150675.22
2022-07-25T10:33:21.434Z,150754.00
2022-07-25T10:35:48.680Z,150737.97
2022-07-25T10:38:24.953Z,150766.31
2022-07-25T10:40:52.534Z,150762.63
2022-07-25T10:43:21.879Z,150675.22
2022-07-25T10:45:58.052Z,150600.13
2022-07-25T10:48:37.693Z,150627.25
2022-07-25T10:51:14.107Z,150772.44
2022-07-25T10:53:47.258Z,150822.91
2022-07-25T10:56:17.558Z,150836.44
2022-07-25T10:58:54.017Z,150819.22
2022-07-25T11:01:27.107Z,150787.22
2022-07-25T11:03:57.394Z,150758.91
2022-07-25T11:06:39.713Z,150916.47
2022-07-25T11:09:23.783Z,150819.22
2022-07-25T11:11:56.221Z,150677.69
2022-07-25T11:14:31.187Z,150669.06
2022-07-25T11:17:09.254Z,150608.81
2022-07-25T11:19:36.362Z,150538.66
2022-07-25T11:22:04.516Z,150451.28
2022-07-25T11:24:43.047Z,150387.34
2022-07-25T11:27:13.279Z,150355.38
2022-07-25T11:29:41.328Z,150334.44
2022-07-25T11:32:11.050Z,150253.28
2022-07-25T11:34:43.636Z,150213.94
2022-07-25T11:37:12.388Z,150186.88
2022-07-25T11:39:41.969Z,150156.16
2022-07-25T11:42:18.406Z,150110.66
2022-07-25T11:44:49.131Z,150100.84
2022-07-25T11:47:30.815Z,150109.41
2022-07-25T11:50:00.435Z,150086.06
2022-07-25T11:52:32.604Z,150097.16
2022-07-25T11:55:11.963Z,150084.84
2022-07-25T11:57:41.815Z,150159.78
2022-07-25T12:00:15.380Z,150156.16
2022-07-25T12:02:42.689Z,150259.41
2022-07-25T12:05:12.975Z,150300.00
2022-07-25T12:07:47.070Z,150300.00
2022-07-25T12:10:18.552Z,150287.69
2022-07-25T12:12:56.146Z,150287.69
2022-07-25T12:15:27.288Z,150180.72
2022-07-25T12:17:56.910Z,150255.72
2022-07-25T12:20:38.021Z,150238.50
2022-07-25T12:23:09.608Z,150211.50
2022-07-25T12:25:42.778Z,150201.63
2022-07-25T12:28:11.032Z,150296.28
2022-07-25T12:30:39.441Z,150366.41
2022-07-25T12:33:06.811Z,150349.19
2022-07-25T12:35:34.803Z,150425.44
2022-07-25T12:38:01.837Z,150453.72
2022-07-25T12:40:29.019Z,150434.06
2022-07-25T12:42:57.176Z,150393.47
2022-07-25T12:45:24.498Z,150334.44
2022-07-25T12:47:51.537Z,150375.03
2022-07-25T12:50:18.863Z,150413.13
2022-07-25T12:52:46.619Z,150489.44
2022-07-25T12:55:16.996Z,150552.13
2022-07-25T12:57:44.904Z,150592.75
2022-07-25T13:00:15.932Z,150646.91
2022-07-25T13:02:43.334Z,150681.34
2022-07-25T13:05:11.011Z,150704.75
2022-07-25T13:07:38.197Z,150669.06
2022-07-25T13:10:06.625Z,150621.06
2022-07-25T13:12:33.845Z,150557.09
2022-07-25T13:15:01.536Z,150625.97
2022-07-25T13:17:28.697Z,150645.69
2022-07-25T13:19:56.697Z,150656.75
2022-07-25T13:22:24.920Z,150605.06
2022-07-25T13:24:53.369Z,150582.91
2022-07-25T13:27:22.008Z,150550.91
2022-07-25T13:29:54.691Z,150580.47
2022-07-25T13:32:22.508Z,150675.22
2022-07-25T13:34:49.790Z,150656.75
2022-07-25T13:37:17.011Z,150698.59
2022-07-25T13:39:44.177Z,150739.19
2022-07-25T13:42:11.277Z,150734.28
2022-07-25T13:44:38.344Z,150591.50
2022-07-25T13:47:05.606Z,150644.44
2022-07-25T13:49:32.798Z,150605.06
2022-07-25T13:51:59.910Z,150486.97
2022-07-25T13:54:27.125Z,150605.06
2022-07-25T13:56:54.298Z,150674.00
2022-07-25T13:59:22.074Z,150642.00
2022-07-25T14:01:49.903Z,150536.16
2022-07-25T14:04:17.333Z,150555.84
2022-07-25T14:06:44.549Z,150584.13
2022-07-25T14:09:11.911Z,150558.31
2022-07-25T14:11:39.002Z,150616.16
2022-07-25T14:14:06.045Z,150683.81
2022-07-25T14:16:34.330Z,150776.16
2022-07-25T14:19:02.214Z,150755.22
2022-07-25T14:21:30.170Z,150666.59
2022-07-25T14:23:57.359Z,150709.69
2022-07-25T14:26:25.695Z,150612.50
2022-07-25T14:28:52.939Z,150528.78
2022-07-25T14:31:21.218Z,150452.50
2022-07-25T14:33:48.316Z,150427.94
2022-07-25T14:36:15.464Z,150442.66
2022-07-25T14:38:42.539Z,150467.25
2022-07-25T14:41:13.090Z,150538.66
2022-07-25T14:43:41.628Z,150509.09
2022-07-25T14:46:08.981Z,150478.34
2022-07-25T14:48:37.950Z,150521.41
2022-07-25T14:51:05.906Z,150522.63
2022-07-25T14:53:34.035Z,150506.66
2022-07-25T14:56:03.110Z,150491.88
2022-07-25T14:58:30.805Z,150472.22
2022-07-25T15:00:57.992Z,150554.63
2022-07-25T15:03:25.226Z,150534.94
2022-07-25T15:05:52.302Z,150445.09
2022-07-25T15:08:19.529Z,150548.47
2022-07-25T15:10:47.025Z,150536.16
2022-07-25T15:13:30.548Z,150645.69
2022-07-25T15:15:59.808Z,150591.50
2022-07-25T15:18:27.204Z,150475.91
2022-07-25T15:20:55.184Z,150511.59
2022-07-25T15:23:24.658Z,150381.16
2022-07-25T15:26:01.774Z,150295.09
2022-07-25T15:28:34.574Z,150307.34
2022-07-25T15:31:02.203Z,150287.69
2022-07-25T15:33:29.681Z,150341.84
2022-07-25T15:35:56.809Z,150415.59
2022-07-25T15:38:23.979Z,150437.75
2022-07-25T15:40:55.047Z,150306.13
2022-07-25T15:43:22.134Z,150264.34
2022-07-25T15:45:49.252Z,150270.47
2022-07-25T15:48:17.015Z,150475.91
2022-07-25T15:50:47.858Z,150740.41
2022-07-25T15:53:15.375Z,150589.03
2022-07-25T15:55:43.166Z,150543.56
2022-07-25T15:58:11.522Z,150649.41
2022-07-25T16:00:40.023Z,150575.56
2022-07-25T16:03:07.548Z,150461.13
2022-07-25T16:05:34.851Z,150300.00
2022-07-25T16:08:02.636Z,150276.66
2022-07-25T16:10:31.572Z,150297.50
2022-07-25T16:12:58.940Z,150404.53
2022-07-25T16:15:26.445Z,150373.81
2022-07-25T16:18:00.105Z,150389.78
2022-07-25T16:20:31.837Z,150238.50
2022-07-25T16:23:00.315Z,150049.19
2022-07-25T16:25:28.510Z,150019.69
2022-07-25T16:27:56.351Z,149936.16
2022-07-25T16:30:23.705Z,149961.91
2022-07-25T16:32:50.879Z,149949.66
2022-07-25T16:35:18.139Z,149867.31
2022-07-25T16:37:45.255Z,149890.69
2022-07-25T16:40:12.624Z,149928.75
2022-07-25T16:42:39.816Z,149953.38
2022-07-25T16:45:07.490Z,150061.50
2022-07-25T16:47:34.768Z,149980.34
2022-07-25T16:50:01.862Z,149937.38
2022-07-25T16:52:28.936Z,150033.19
2022-07-25T16:54:55.999Z,150024.59
2022-07-25T16:57:25.025Z,150131.53
2022-07-25T16:59:53.446Z,149985.31
2022-07-25T17:02:26.217Z,149901.72
2022-07-25T17:04:56.624Z,149801.00
2022-07-25T17:07:23.985Z,149780.13
2022-07-25T17:09:51.428Z,149761.69
2022-07-25T17:12:19.159Z,149681.84
2022-07-25T17:14:46.469Z,149667.09
2022-07-25T17:17:13.699Z,149626.63
2022-07-25T17:19:40.853Z,149614.31
2022-07-25T17:22:09.646Z,149602.03
2022-07-25T17:24:37.699Z,149541.84
2022-07-25T17:27:07.766Z,149534.50
2022-07-25T17:29:34.926Z,149481.72
2022-07-25T17:32:02.277Z,149464.56
2022-07-25T17:34:29.339Z,149465.78
2022-07-25T17:36:57.245Z,149474.38
2022-07-25T17:39:25.491Z,149481.72
2022-07-25T17:41:52.641Z,149452.28
2022-07-25T17:44:20.344Z,149468.22
2022-07-25T17:46:49.872Z,149502.59
2022-07-25T17:49:17.063Z,149425.28
2022-07-25T17:51:44.334Z,149459.59
2022-07-25T17:54:11.969Z,149403.13
2022-07-25T17:56:39.318Z,149341.81
2022-07-25T17:59:08.346Z,149489.09
2022-07-25T18:01:35.694Z,149533.25
2022-07-25T18:04:03.597Z,149473.13
2022-07-25T18:06:30.881Z,149462.09
2022-07-25T18:08:57.928Z,149435.09
2022-07-25T18:11:25.135Z,149395.81
2022-07-25T18:13:52.197Z,149378.63
2022-07-25T18:16:19.345Z,149327.09
2022-07-25T18:18:46.586Z,149260.81
2022-07-25T18:21:13.637Z,149290.28
2022-07-25T18:23:40.691Z,149253.50
2022-07-25T18:26:08.907Z,149195.78
2022-07-25T18:28:36.240Z,149204.38
2022-07-25T18:31:04.402Z,149226.44
2022-07-25T18:33:31.661Z,149182.28
2022-07-25T18:35:59.479Z,149106.28
2022-07-25T18:38:28.844Z,149162.69
2022-07-25T18:41:12.565Z,149141.81
2022-07-25T18:43:43.077Z,149138.16
2022-07-25T18:46:12.866Z,149084.19
2022-07-25T18:48:42.311Z,149084.19
2022-07-25T18:51:09.587Z,149066.97
2022-07-25T18:53:37.164Z,149037.56
2022-07-25T18:56:05.763Z,149043.69
2022-07-25T18:58:33.246Z,148993.41
2022-07-25T19:04:48.093Z,148981.16
2022-07-25T19:07:15.207Z,148919.88
2022-07-25T19:09:42.229Z,148932.16
2022-07-25T19:12:10.199Z,148892.88
2022-07-25T19:14:37.234Z,148911.28
2022-07-25T19:17:04.494Z,148840.19
2022-07-25T19:19:31.716Z,148872.06
2022-07-25T19:21:58.825Z,148870.78
2022-07-25T19:24:25.928Z,148819.34
2022-07-25T19:26:53.125Z,148722.50
2022-07-25T19:29:20.916Z,148734.81
2022-07-25T19:31:48.121Z,148728.72
2022-07-25T19:34:15.175Z,148736.03
2022-07-25T19:36:45.736Z,148686.97
2022-07-25T19:39:13.158Z,148689.44
2022-07-25T19:41:46.172Z,148704.13
2022-07-25T19:44:14.249Z,148693.13
2022-07-25T19:46:41.363Z,148675.97
2022-07-25T19:49:08.735Z,148685.75
2022-07-25T19:51:36.126Z,148698.03
2022-07-25T19:54:03.655Z,148679.66
2022-07-25T19:56:31.594Z,148638.00
2022-07-25T19:58:58.638Z,148603.69
2022-07-25T20:01:29.941Z,148618.41
2022-07-25T20:03:57.155Z,148596.38
2022-07-25T20:06:24.753Z,148631.84
2022-07-25T20:08:51.943Z,148620.84
2022-07-25T20:11:19.321Z,148549.84
2022-07-25T20:13:46.405Z,148522.84
2022-07-25T20:16:13.507Z,148543.69
2022-07-25T20:18:40.533Z,148542.47
2022-07-25T20:21:07.880Z,148366.16
2022-07-25T20:23:34.934Z,148467.75
2022-07-25T20:26:02.385Z,148482.44
2022-07-25T20:28:30.072Z,148510.59
2022-07-25T20:30:58.485Z,148444.50
2022-07-25T20:33:27.081Z,148442.03
2022-07-25T20:35:54.885Z,148402.88
2022-07-25T20:38:23.090Z,148410.19
2022-07-25T20:40:52.219Z,148406.50
2022-07-25T20:43:19.374Z,148380.81
2022-07-25T20:45:47.547Z,148371.03
2022-07-25T20:48:14.782Z,148395.50
2022-07-25T20:50:42.430Z,148358.78
2022-07-25T20:53:10.131Z,148405.28
2022-07-25T20:55:37.288Z,148339.16
2022-07-25T20:58:04.918Z,148368.56
2022-07-25T21:00:32.332Z,148336.69
2022-07-25T21:03:00.294Z,148334.28
2022-07-25T21:05:27.879Z,148314.66
2022-07-25T21:07:54.998Z,148340.38
2022-07-25T21:10:22.323Z,148356.31
2022-07-25T21:12:49.490Z,148255.97
2022-07-25T21:15:16.977Z,148274.31
2022-07-25T21:17:44.341Z,148344.06
2022-07-25T21:20:13.332Z,148287.78
2022-07-25T21:22:41.309Z,148248.59
2022-07-25T21:25:09.092Z,148258.38
2022-07-25T21:27:36.765Z,148226.56
2022-07-25T21:30:06.675Z,148226.56
2022-07-25T21:32:34.162Z,148151.94
2022-07-25T21:35:01.373Z,148171.50
2022-07-25T21:37:28.555Z,148155.63
2022-07-25T21:39:55.547Z,148164.19
2022-07-25T21:42:22.593Z,148068.72
2022-07-25T21:44:49.643Z,148142.13
2022-07-25T21:47:16.696Z,148136.00
2022-07-25T21:50:02.196Z,148126.19
2022-07-25T21:52:34.718Z,148116.41
2022-07-25T21:55:04.061Z,148110.31
2022-07-25T21:57:31.463Z,148122.56
2022-07-25T21:59:58.516Z,148105.41
2022-07-25T22:02:25.940Z,148091.97
2022-07-25T22:04:53.096Z,148123.75
2022-07-25T22:07:20.393Z,148138.44
2022-07-25T22:09:47.430Z,148155.63
2022-07-25T22:12:14.949Z,148122.56
2022-07-25T22:14:42.110Z,148151.94
2022-07-25T22:17:09.399Z,148120.09
2022-07-25T22:19:36.501Z,148100.53
2022-07-25T22:22:05.707Z,148057.69
2022-07-25T22:24:33.312Z,148038.13
2022-07-25T22:27:00.495Z,148025.94
2022-07-25T22:29:27.565Z,148076.03
2022-07-25T22:31:54.676Z,148032.03
2022-07-25T22:34:21.779Z,148054.06
2022-07-25T22:36:48.895Z,148100.53
2022-07-25T22:39:16.794Z,148065.03
2022-07-25T22:41:44.347Z,148101.75
2022-07-25T22:44:11.454Z,148109.09
2022-07-25T22:46:38.608Z,148082.19
2022-07-25T22:49:06.011Z,148067.50
2022-07-25T22:51:33.621Z,148116.41
2022-07-25T22:54:01.273Z,148117.66
2022-07-25T22:56:29.258Z,148136.00
2022-07-25T22:58:57.144Z,148057.69
2022-07-25T23:01:24.755Z,148150.72
2022-07-25T23:03:52.144Z,148160.50
2022-07-25T23:06:20.785Z,148170.28
2022-07-25T23:08:48.938Z,148143.31
2022-07-25T23:11:16.632Z,148150.72
2022-07-25T23:13:43.721Z,148138.44
2022-07-25T23:16:10.884Z,148110.31
2022-07-25T23:18:38.364Z,148083.38
2022-07-25T23:21:05.838Z,148079.72
2022-07-25T23:23:32.935Z,148078.50
2022-07-25T23:26:00.175Z,148001.44
2022-07-25T23:28:27.245Z,148056.47
2022-07-25T23:30:54.289Z,148049.16
2022-07-25T23:33:25.512Z,148065.03
2022-07-25T23:35:54.132Z,148062.63
2022-07-25T23:38:21.798Z,148052.78
2022-07-25T23:40:49.489Z,148025.94
2022-07-25T23:43:31.915Z,148069.94
2022-07-25T23:46:03.850Z,148077.28
2022-07-25T23:48:33.614Z,148124.97
2022-07-25T23:51:01.090Z,148112.72
2022-07-25T23:53:28.416Z,148077.28
2022-07-25T23:55:55.463Z,148158.03
2022-07-25T23:58:22.699Z,148094.38
